Time;durP1;ratioP1;P1;durP2;ratioP2;P2;SDS_P1;SDS_P2;PMS_P1;PMS_P2;Temp;Humidity;BMP_temperature;BMP_pressure;BME280_temperature;BME280_humidity;BME280_pressure;Samples;Min_cycle;Max_cycle;Signal;HPM_P1;HPM_P2
2022/01/22 00:01:46;;;;;;;7.75;4.57;;;;;;;-141.50;100.00;63355.56;4993560;28;20612;-82
2022/01/22 00:04:16;;;;;;;7.07;4.20;;;;;;;-141.50;100.00;63355.56;4991871;28;20352;-83
2022/01/22 00:06:46;;;;;;;8.30;4.10;;;;;;;-141.50;100.00;63355.56;4993743;28;20058;-84
2022/01/22 00:09:38;;;;;;;15.32;4.57;;;;;;;-141.50;100.00;63355.56;4991304;28;20050;-83
2022/01/22 00:12:07;;;;;;;7.45;4.38;;;;;;;-141.50;100.00;63355.56;4992959;28;20269;-82
2022/01/22 00:14:34;;;;;;;8.88;4.95;;;;;;;-141.50;100.00;63355.56;4973996;28;20062;-84
2022/01/22 00:17:02;;;;;;;8.15;5.25;;;;;;;-141.50;100.00;63355.56;4974815;28;20046;-82
2022/01/22 00:19:29;;;;;;;7.25;4.50;;;;;;;-141.50;100.00;63355.56;4991385;28;20046;-84
2022/01/22 00:21:56;;;;;;;7.22;4.57;;;;;;;-141.50;100.00;63355.56;4992911;28;20105;-82
2022/01/22 00:24:23;;;;;;;8.25;4.80;;;;;;;-141.50;100.00;63355.56;4992604;28;20070;-82
2022/01/22 00:26:49;;;;;;;7.38;4.30;;;;;;;-141.50;100.00;63355.56;4992068;28;20054;-82
2022/01/22 00:29:16;;;;;;;7.60;4.40;;;;;;;-141.50;100.00;63355.56;4993388;28;20507;-85
2022/01/22 00:31:43;;;;;;;7.80;4.50;;;;;;;-141.50;100.00;63355.56;4992763;28;20050;-83
2022/01/22 00:34:10;;;;;;;7.90;4.85;;;;;;;-141.50;100.00;63355.56;4993814;28;20046;-82
2022/01/22 00:36:38;;;;;;;9.13;4.93;;;;;;;-141.50;100.00;63355.56;4993624;28;20073;-83
2022/01/22 00:39:04;;;;;;;8.35;4.75;;;;;;;-141.50;100.00;63355.56;4994869;28;20431;-83
2022/01/22 00:41:32;;;;;;;7.22;4.85;;;;;;;-141.50;100.00;63355.56;4979677;28;20506;-85
2022/01/22 00:43:58;;;;;;;8.45;5.15;;;;;;;-141.50;100.00;63355.56;4995840;28;20066;-86
2022/01/22 00:46:25;;;;;;;7.97;4.78;;;;;;;-141.50;100.00;63355.56;4994551;28;20065;-84
2022/01/22 00:48:52;;;;;;;8.13;4.53;;;;;;;-141.50;100.00;63355.56;4996566;28;20089;-83
2022/01/22 00:51:18;;;;;;;8.70;5.53;;;;;;;-141.50;100.00;63355.56;4978454;28;20054;-84
2022/01/22 00:53:45;;;;;;;10.05;5.53;;;;;;;-141.50;100.00;63355.56;4994702;28;20109;-83
2022/01/22 00:56:13;;;;;;;10.35;5.97;;;;;;;-141.50;100.00;63355.56;4994334;28;20050;-85
2022/01/22 00:58:40;;;;;;;9.05;5.60;;;;;;;-141.50;100.00;63355.56;4992251;28;20491;-85
2022/01/22 01:01:06;;;;;;;10.07;5.85;;;;;;;-141.50;100.00;63355.56;4993198;28;20050;-83
2022/01/22 01:03:34;;;;;;;9.30;6.20;;;;;;;-141.50;100.00;63355.56;4994535;28;20049;-84
2022/01/22 01:06:03;;;;;;;11.15;6.43;;;;;;;-141.50;100.00;63355.56;4993082;28;20454;-83
2022/01/22 01:08:33;;;;;;;10.13;5.97;;;;;;;-141.50;100.00;63355.56;4995252;28;20046;-83
2022/01/22 01:11:00;;;;;;;11.23;6.28;;;;;;;-141.50;100.00;63355.56;4995182;28;20057;-81
2022/01/22 01:13:29;;;;;;;9.68;5.47;;;;;;;-141.50;100.00;63355.56;5005107;28;20030;-85
2022/01/22 01:32:20;;;;;;;7.07;4.65;;;;;;;-141.50;100.00;63355.56;4996653;28;20050;-86
2022/01/22 01:34:49;;;;;;;6.93;4.47;;;;;;;-141.50;100.00;63355.56;4996334;28;20407;-84
2022/01/22 01:37:16;;;;;;;7.25;4.63;;;;;;;-141.50;100.00;63355.56;4981758;28;20116;-84
2022/01/22 01:39:46;;;;;;;7.28;4.35;;;;;;;-141.50;100.00;63355.56;4979761;28;20534;-84
2022/01/22 01:42:27;;;;;;;8.73;4.85;;;;;;;-141.50;100.00;63355.56;4980181;28;20050;-84
2022/01/22 01:44:56;;;;;;;6.53;4.30;;;;;;;-141.50;100.00;63355.56;4994750;28;20051;-85
2022/01/22 01:47:22;;;;;;;7.20;4.40;;;;;;;-141.50;100.00;63355.56;4995214;28;20050;-84
2022/01/22 01:49:49;;;;;;;7.20;4.88;;;;;;;-141.50;100.00;63355.56;4995644;28;20455;-86
2022/01/22 01:52:22;;;;;;;7.00;4.40;;;;;;;-141.50;100.00;63355.56;4995368;28;20113;-83
2022/01/22 01:55:11;;;;;;;6.68;4.38;;;;;;;-141.50;100.00;63355.56;4995643;28;20050;-83
2022/01/22 01:57:40;;;;;;;7.53;5.00;;;;;;;-141.50;100.00;63355.56;4996400;28;20054;-86
2022/01/22 02:00:10;;;;;;;7.85;4.90;;;;;;;-141.50;100.00;63355.56;4995029;28;20086;-83
2022/01/22 02:02:38;;;;;;;7.03;4.63;;;;;;;-141.50;100.00;63355.56;4978415;28;20117;-85
2022/01/22 02:05:08;;;;;;;8.18;4.70;;;;;;;-141.50;100.00;63355.56;4996437;28;20077;-83
2022/01/22 02:07:38;;;;;;;7.43;4.97;;;;;;;-141.50;100.00;63355.56;4979087;28;20102;-83
2022/01/22 02:10:07;;;;;;;7.35;4.72;;;;;;;-141.50;100.00;63355.56;4979548;28;20082;-83
2022/01/22 02:13:36;;;;;;;7.28;4.60;;;;;;;-141.50;100.00;63355.56;4978877;28;20046;-83
2022/01/22 02:23:52;;;;;;;6.57;4.25;;;;;;;-141.50;100.00;63355.56;4998103;28;20073;-87
2022/01/22 02:26:19;;;;;;;7.20;4.53;;;;;;;-141.50;100.00;63355.56;4996220;28;20046;-82
2022/01/22 02:28:51;;;;;;;6.28;4.32;;;;;;;-141.50;100.00;63355.56;4996059;28;20077;-84
2022/01/22 02:32:05;;;;;;;6.30;4.00;;;;;;;-141.50;100.00;63355.56;4994889;28;20081;-82
2022/01/22 02:37:05;;;;;;;5.90;4.03;;;;;;;-141.50;100.00;63355.56;4996236;28;20162;-81
2022/01/22 02:39:40;;;;;;;6.47;4.00;;;;;;;-141.50;100.00;63355.56;4995728;28;20086;-83
2022/01/22 02:42:07;;;;;;;5.68;4.03;;;;;;;-141.50;100.00;63355.56;4979603;28;20253;-82
2022/01/22 02:44:42;;;;;;;6.45;4.32;;;;;;;-141.50;100.00;63355.56;4979921;28;20046;-87
2022/01/22 02:47:13;;;;;;;6.85;4.25;;;;;;;-141.50;100.00;63355.56;4995596;28;20487;-83
2022/01/22 02:49:40;;;;;;;6.50;4.53;;;;;;;-141.50;100.00;63355.56;4997265;28;20082;-85
2022/01/22 02:52:08;;;;;;;6.80;4.55;;;;;;;-141.50;100.00;63355.56;4997308;28;20050;-83
2022/01/22 02:54:36;;;;;;;7.85;4.93;;;;;;;-141.50;100.00;63355.56;4978131;28;20050;-81
2022/01/22 02:57:03;;;;;;;7.60;5.05;;;;;;;-141.50;100.00;63355.56;4977027;28;20451;-83
2022/01/22 02:59:30;;;;;;;7.50;5.03;;;;;;;-141.50;100.00;63355.56;4994683;28;20058;-82
2022/01/22 03:01:59;;;;;;;7.07;4.45;;;;;;;-141.50;100.00;63355.56;5001861;28;20057;-83
2022/01/22 03:04:25;;;;;;;6.90;4.70;;;;;;;-141.50;100.00;63355.56;4981146;28;20483;-84
2022/01/22 03:06:52;;;;;;;6.43;4.18;;;;;;;-141.50;100.00;63355.56;4996618;28;20109;-83
2022/01/22 03:09:26;;;;;;;6.25;4.10;;;;;;;-141.50;100.00;63355.56;4979768;28;20105;-84
2022/01/22 03:23:05;;;;;;;4.95;3.58;;;;;;;-141.50;100.00;63355.56;4998527;28;20046;-83
2022/01/22 03:28:19;;;;;;;5.35;3.03;;;;;;;-141.50;100.00;63355.56;4995948;28;20237;-83
2022/01/22 03:30:45;;;;;;;5.95;3.70;;;;;;;-141.50;100.00;63355.56;4995927;28;20058;-82
2022/01/22 03:33:14;;;;;;;6.30;3.70;;;;;;;-141.50;100.00;63355.56;4994238;28;20054;-84
2022/01/22 03:35:45;;;;;;;6.30;4.13;;;;;;;-141.50;100.00;63355.56;4979071;28;20100;-84
2022/01/22 03:38:11;;;;;;;5.82;4.03;;;;;;;-141.50;100.00;63355.56;4997584;28;20108;-84
2022/01/22 03:40:38;;;;;;;6.95;4.55;;;;;;;-141.50;100.00;63355.56;4995675;28;20054;-84
2022/01/22 03:43:05;;;;;;;4.90;3.55;;;;;;;-141.50;100.00;63355.56;4996025;28;20186;-84
2022/01/22 03:45:31;;;;;;;5.97;3.95;;;;;;;-141.50;100.00;63355.56;4993388;28;20455;-82
2022/01/22 03:47:58;;;;;;;6.03;3.67;;;;;;;-141.50;100.00;63355.56;4977141;28;20054;-85
2022/01/22 03:50:24;;;;;;;4.20;2.70;;;;;;;-141.50;100.00;63355.56;5010807;28;20054;-84
2022/01/22 03:52:51;;;;;;;4.63;2.90;;;;;;;-141.50;100.00;63355.56;5003552;28;20097;-83
2022/01/22 03:55:40;;;;;;;4.82;3.13;;;;;;;-141.50;100.00;63355.56;4998195;28;20046;-81
2022/01/22 03:58:07;;;;;;;6.78;4.25;;;;;;;-141.50;100.00;63355.56;4996726;28;20121;-84
2022/01/22 04:00:34;;;;;;;8.30;3.97;;;;;;;-141.50;100.00;63355.56;4995481;28;20113;-84
2022/01/22 04:06:02;;;;;;;6.50;3.72;;;;;;;-141.50;100.00;63355.56;4997870;28;20052;-83
2022/01/22 04:08:28;;;;;;;6.85;3.88;;;;;;;-141.50;100.00;63355.56;4978217;28;20100;-83
2022/01/22 04:10:55;;;;;;;5.18;3.25;;;;;;;-141.50;100.00;63355.56;4996196;28;20109;-85
2022/01/22 04:13:29;;;;;;;4.25;2.60;;;;;;;-141.50;100.00;63355.56;4980307;28;20085;-83
2022/01/22 04:15:56;;;;;;;4.15;2.45;;;;;;;-141.50;100.00;63355.56;5011899;28;20050;-83
2022/01/22 04:26:52;;;;;;;5.43;2.93;;;;;;;-141.50;100.00;63355.56;5021517;28;20049;-83
2022/01/22 04:29:23;;;;;;;5.85;2.95;;;;;;;-141.50;100.00;63355.56;5018686;28;20076;-84
2022/01/22 04:31:50;;;;;;;6.93;3.15;;;;;;;-141.50;100.00;63355.56;5000693;28;20057;-82
2022/01/22 04:34:17;;;;;;;7.43;3.50;;;;;;;-141.50;100.00;63355.56;5002081;28;20069;-83
2022/01/22 04:36:44;;;;;;;6.05;3.22;;;;;;;-141.50;100.00;63355.56;5017715;28;20482;-83
2022/01/22 04:39:11;;;;;;;6.43;3.00;;;;;;;-141.50;100.00;63355.56;5017269;28;20057;-83
2022/01/22 04:41:38;;;;;;;7.28;3.80;;;;;;;-141.50;100.00;63355.56;5004735;28;20049;-86
2022/01/22 04:44:06;;;;;;;7.43;3.70;;;;;;;-141.50;100.00;63355.56;5000776;28;20520;-82
2022/01/22 04:57:23;;;;;;;6.78;4.10;;;;;;;-141.50;100.00;63355.56;5018182;28;20054;-84
2022/01/22 04:59:50;;;;;;;6.32;3.95;;;;;;;-141.50;100.00;63355.56;4999245;28;20120;-84
2022/01/22 05:02:16;;;;;;;6.97;4.57;;;;;;;-141.50;100.00;63355.56;5014336;28;20133;-84
2022/01/22 05:04:43;;;;;;;8.48;4.70;;;;;;;-141.50;100.00;63355.56;5015623;28;20053;-83
2022/01/22 05:07:10;;;;;;;8.13;5.55;;;;;;;-141.50;100.00;63355.56;5018797;28;20076;-83
2022/01/22 05:09:39;;;;;;;9.27;6.05;;;;;;;-141.50;100.00;63355.56;5019790;28;20054;-81
2022/01/22 05:12:07;;;;;;;10.80;6.63;;;;;;;-141.50;100.00;63355.56;5014208;28;20274;-83
2022/01/22 05:14:37;;;;;;;10.02;5.25;;;;;;;-141.50;100.00;63355.56;5015436;28;20062;-82
2022/01/22 05:17:06;;;;;;;9.40;5.93;;;;;;;-141.50;100.00;63355.56;4997365;28;20046;-80
2022/01/22 05:22:45;;;;;;;9.02;5.07;;;;;;;-141.50;100.00;63355.56;5015134;28;20075;-83
2022/01/22 05:25:00;;;;;;;10.05;5.85;;;;;;;-141.50;100.00;63355.56;5012416;28;20104;-83
2022/01/22 05:27:41;;;;;;;11.88;5.97;;;;;;;-141.50;100.00;63355.56;4997689;28;20066;-83
2022/01/22 05:33:03;;;;;;;9.98;5.32;;;;;;;-141.50;100.00;63355.56;5018841;28;20104;-85
2022/01/22 05:38:15;;;;;;;9.07;4.57;;;;;;;-141.50;100.00;63355.56;5023687;28;20100;-85
2022/01/22 05:40:41;;;;;;;7.50;3.58;;;;;;;-141.50;100.00;63355.56;5023038;28;20050;-83
2022/01/22 05:43:08;;;;;;;6.40;3.22;;;;;;;-141.50;100.00;63355.56;5024361;28;20552;-81
2022/01/22 05:45:34;;;;;;;6.75;3.70;;;;;;;-141.50;100.00;63355.56;5003731;28;20038;-80
2022/01/22 05:48:01;;;;;;;6.13;3.17;;;;;;;-141.50;100.00;63355.56;5019966;28;20081;-81
2022/01/22 05:50:35;;;;;;;5.63;3.10;;;;;;;-141.50;100.00;63355.56;5020151;28;20076;-82
2022/01/22 05:53:14;;;;;;;5.82;2.80;;;;;;;-141.50;100.00;63355.56;5019609;28;20060;-85
2022/01/22 06:01:15;;;;;;;7.07;1.95;;;;;;;-141.50;100.00;63355.56;5017491;28;20046;-82
2022/01/22 06:03:43;;;;;;;2.58;1.50;;;;;;;-141.50;100.00;63355.56;5017188;28;20056;-83
2022/01/22 06:06:10;;;;;;;2.90;1.40;;;;;;;-141.50;100.00;63355.56;4998055;28;20108;-83
2022/01/22 06:08:46;;;;;;;3.80;1.85;;;;;;;-141.50;100.00;63355.56;5017275;28;20054;-81
2022/01/22 06:11:21;;;;;;;2.78;1.52;;;;;;;-141.50;100.00;63355.56;5017699;28;20096;-82
2022/01/22 06:13:48;;;;;;;2.72;1.70;;;;;;;-141.50;100.00;63355.56;5018527;28;20277;-81
2022/01/22 06:16:16;;;;;;;3.88;1.80;;;;;;;-141.50;100.00;63355.56;5018357;28;20053;-82
2022/01/22 06:18:44;;;;;;;3.42;2.00;;;;;;;-141.50;100.00;63355.56;5001905;28;20046;-80
2022/01/22 06:21:10;;;;;;;3.50;1.60;;;;;;;-141.50;100.00;63355.56;5021072;28;20058;-82
2022/01/22 06:23:39;;;;;;;3.28;1.80;;;;;;;-141.50;100.00;63355.56;5002898;28;20057;-82
2022/01/22 06:26:06;;;;;;;8.77;2.35;;;;;;;-141.50;100.00;63355.56;5019007;28;20050;-82
2022/01/22 06:28:34;;;;;;;5.30;2.40;;;;;;;-141.50;100.00;63355.56;4998507;28;20092;-81
2022/01/22 06:31:01;;;;;;;6.78;2.80;;;;;;;-141.50;100.00;63355.56;5026314;28;20486;-82
2022/01/22 06:33:28;;;;;;;9.70;2.80;;;;;;;-141.50;100.00;63355.56;5017777;28;20046;-82
2022/01/22 06:35:54;;;;;;;9.38;3.38;;;;;;;-141.50;100.00;63355.56;5015308;28;20050;-79
2022/01/22 06:38:21;;;;;;;8.82;3.33;;;;;;;-141.50;100.00;63355.56;5014926;28;20107;-81
2022/01/22 06:43:34;;;;;;;7.32;3.55;;;;;;;-141.50;100.00;63355.56;5009777;28;20309;-80
2022/01/22 06:46:00;;;;;;;10.80;3.97;;;;;;;-141.50;100.00;63355.56;5013546;28;20052;-80
2022/01/22 06:48:27;;;;;;;7.18;3.60;;;;;;;-141.50;100.00;63355.56;5019957;28;20058;-81
2022/01/22 06:50:54;;;;;;;6.30;3.38;;;;;;;-141.50;100.00;63355.56;5003200;28;20053;-82
2022/01/22 06:53:20;;;;;;;8.30;3.58;;;;;;;-141.50;100.00;63355.56;5017708;28;20049;-81
2022/01/22 06:58:19;;;;;;;8.55;3.92;;;;;;;-141.50;100.00;63355.56;5017303;28;20073;-82
2022/01/22 07:00:46;;;;;;;10.68;3.95;;;;;;;-141.50;100.00;63355.56;5019567;28;20057;-81
2022/01/22 07:03:13;;;;;;;11.73;3.90;;;;;;;-141.50;100.00;63355.56;5021876;28;20081;-79
2022/01/22 07:05:39;;;;;;;8.35;3.83;;;;;;;-141.50;100.00;63355.56;5014754;28;20070;-80
2022/01/22 07:08:06;;;;;;;7.53;4.00;;;;;;;-141.50;100.00;63355.56;5014707;28;20089;-81
2022/01/22 07:10:32;;;;;;;14.68;4.15;;;;;;;-141.50;100.00;63355.56;5017125;28;20054;-81
2022/01/22 07:12:59;;;;;;;8.77;4.40;;;;;;;-141.50;100.00;63355.56;5018852;28;20499;-82
2022/01/22 07:15:26;;;;;;;9.85;4.10;;;;;;;-141.50;100.00;63355.56;5017830;28;20042;-83
2022/01/22 07:17:54;;;;;;;12.05;4.10;;;;;;;-141.50;100.00;63355.56;5015282;28;20058;-82
2022/01/22 07:20:28;;;;;;;11.15;4.05;;;;;;;-141.50;100.00;63355.56;5018778;28;20054;-81
2022/01/22 07:25:25;;;;;;;8.63;4.40;;;;;;;-141.50;100.00;63355.56;5018453;28;20054;-83
2022/01/22 07:27:52;;;;;;;13.38;6.05;;;;;;;-141.50;100.00;63355.56;4998411;28;20050;-83
2022/01/22 07:30:18;;;;;;;14.07;5.45;;;;;;;-141.50;100.00;63355.56;5014641;28;20057;-84
2022/01/22 07:32:45;;;;;;;11.07;5.30;;;;;;;-141.50;100.00;63355.56;5019145;28;20057;-82
2022/01/22 07:35:16;;;;;;;8.32;4.05;;;;;;;-141.50;100.00;63355.56;5002113;28;20045;-80
2022/01/22 07:37:43;;;;;;;11.15;4.30;;;;;;;-141.50;100.00;63355.56;5000590;28;20054;-82
2022/01/22 07:40:11;;;;;;;13.95;4.18;;;;;;;-141.50;100.00;63355.56;5019205;28;20112;-80
2022/01/22 07:42:39;;;;;;;11.70;4.97;;;;;;;-141.50;100.00;63355.56;5021016;28;20057;-81
2022/01/22 07:45:10;;;;;;;10.55;4.50;;;;;;;-141.50;100.00;63355.56;5005222;28;20060;-81
2022/01/22 07:47:37;;;;;;;10.30;4.38;;;;;;;-141.50;100.00;63355.56;5021683;28;20061;-82
2022/01/22 07:50:06;;;;;;;8.50;4.13;;;;;;;-141.50;100.00;63355.56;5019679;28;20066;-83
2022/01/22 07:52:33;;;;;;;11.95;4.38;;;;;;;-141.50;100.00;63355.56;5004559;28;20077;-82
2022/01/22 07:55:00;;;;;;;11.85;4.45;;;;;;;-141.50;100.00;63355.56;5004018;28;20072;-82
2022/01/22 07:57:26;;;;;;;11.57;4.10;;;;;;;-141.50;100.00;63355.56;5003897;28;20085;-82
2022/01/22 07:59:53;;;;;;;13.00;4.18;;;;;;;-141.50;100.00;63355.56;5001119;28;20061;-82
2022/01/22 08:02:19;;;;;;;8.80;3.80;;;;;;;-141.50;100.00;63355.56;5021211;28;20084;-82
2022/01/22 08:04:46;;;;;;;8.73;4.00;;;;;;;-141.50;100.00;63355.56;5019242;28;20082;-83
2022/01/22 08:07:13;;;;;;;9.50;4.00;;;;;;;-141.50;100.00;63355.56;5000643;28;20115;-82
2022/01/22 08:09:39;;;;;;;14.85;4.32;;;;;;;-141.50;100.00;63355.56;5018570;28;20058;-81
2022/01/22 08:12:06;;;;;;;19.40;5.30;;;;;;;-141.50;100.00;63355.56;5019032;28;20124;-80
2022/01/22 08:14:33;;;;;;;11.45;5.18;;;;;;;-141.50;100.00;63355.56;5018031;28;20050;-82
2022/01/22 08:17:00;;;;;;;7.75;4.35;;;;;;;-141.50;100.00;63355.56;5015514;28;20088;-82
2022/01/22 08:19:26;;;;;;;10.57;4.07;;;;;;;-141.50;100.00;63355.56;5018137;28;20053;-82
2022/01/22 08:21:53;;;;;;;11.10;4.78;;;;;;;-141.50;100.00;63355.56;5020027;28;20065;-81
2022/01/22 08:24:24;;;;;;;10.10;3.92;;;;;;;-141.50;100.00;63355.56;5021452;28;20054;-82
2022/01/22 08:27:07;;;;;;;9.57;4.35;;;;;;;-141.50;100.00;63355.56;5021914;28;20046;-83
2022/01/22 08:29:36;;;;;;;11.15;4.60;;;;;;;-141.50;100.00;63355.56;5000510;28;20109;-82
2022/01/22 08:32:09;;;;;;;13.20;4.63;;;;;;;-141.50;100.00;63355.56;5018536;28;20056;-82
2022/01/22 08:37:24;;;;;;;13.38;5.10;;;;;;;-141.50;100.00;63355.56;5015247;28;20073;-81
2022/01/22 08:39:51;;;;;;;12.85;5.45;;;;;;;-141.50;100.00;63355.56;5012146;28;20058;-82
2022/01/22 08:42:19;;;;;;;14.77;5.50;;;;;;;-141.50;100.00;63355.56;5013911;28;20061;-82
2022/01/22 08:44:47;;;;;;;19.85;6.55;;;;;;;-141.50;100.00;63355.56;5010161;28;20116;-81
2022/01/22 08:47:14;;;;;;;16.35;5.75;;;;;;;-141.50;100.00;63355.56;4995269;28;20068;-82
2022/01/22 08:49:42;;;;;;;15.02;7.30;;;;;;;-141.50;100.00;63355.56;5010502;28;20123;-82
2022/01/22 08:52:14;;;;;;;17.08;7.10;;;;;;;-141.50;100.00;63355.56;5011048;28;20053;-81
2022/01/22 08:54:42;;;;;;;24.38;8.00;;;;;;;-141.50;100.00;63355.56;5015239;28;20053;-81
2022/01/22 08:57:09;;;;;;;27.23;11.43;;;;;;;-141.50;100.00;63355.56;5019400;28;20042;-83
2022/01/22 08:59:36;;;;;;;16.33;7.20;;;;;;;-141.50;100.00;63355.56;4999313;28;20053;-81
2022/01/22 09:02:05;;;;;;;16.27;7.13;;;;;;;-141.50;100.00;63355.56;4991762;28;20115;-82
2022/01/22 09:04:33;;;;;;;20.10;7.65;;;;;;;-141.50;100.00;63355.56;4988628;28;20042;-82
2022/01/22 09:07:00;;;;;;;21.67;8.52;;;;;;;-141.50;100.00;63355.56;5007793;28;20050;-82
2022/01/22 09:09:27;;;;;;;17.30;7.22;;;;;;;-141.50;100.00;63355.56;5011489;28;20111;-81
2022/01/22 09:11:54;;;;;;;15.93;7.55;;;;;;;-141.50;100.00;63355.56;5010489;28;20084;-81
2022/01/22 09:14:21;;;;;;;19.30;8.10;;;;;;;-141.50;100.00;63355.56;5011306;28;20477;-83
2022/01/22 09:16:50;;;;;;;18.20;7.50;;;;;;;-141.50;100.00;63355.56;5010344;28;20050;-82
2022/01/22 09:19:17;;;;;;;23.75;8.52;;;;;;;-141.50;100.00;63355.56;4994680;28;20054;-82
2022/01/22 09:21:46;;;;;;;22.27;8.13;;;;;;;-141.50;100.00;63355.56;4994339;28;20130;-82
2022/01/22 09:24:15;;;;;;;21.30;8.20;;;;;;;-141.50;100.00;63355.56;5013292;28;20054;-83
2022/01/22 09:26:43;;;;;;;20.30;7.60;;;;;;;-141.50;100.00;63355.56;5011512;28;20054;-83
2022/01/22 09:29:10;;;;;;;14.93;7.70;;;;;;;-141.50;100.00;63355.56;4988425;28;20072;-82
2022/01/22 09:31:36;;;;;;;19.13;7.38;;;;;;;-141.50;100.00;63355.56;5009221;28;20077;-82
2022/01/22 09:34:04;;;;;;;13.30;6.88;;;;;;;-141.50;100.00;63355.56;5009740;28;20096;-83
2022/01/22 09:36:31;;;;;;;18.60;7.22;;;;;;;-141.50;100.00;63355.56;5010610;28;20085;-83
2022/01/22 09:38:58;;;;;;;14.60;6.82;;;;;;;-141.50;100.00;63355.56;5008502;28;20058;-81
2022/01/22 09:41:27;;;;;;;21.92;7.82;;;;;;;-141.50;100.00;63355.56;4994410;28;20077;-83
2022/01/22 09:43:55;;;;;;;16.75;6.95;;;;;;;-141.50;100.00;63355.56;5010922;28;20131;-83
2022/01/22 09:46:24;;;;;;;20.77;8.27;;;;;;;-141.50;100.00;63355.56;5015563;28;20050;-83
2022/01/22 09:48:51;;;;;;;20.70;8.48;;;;;;;-141.50;100.00;63355.56;5020800;28;20061;-83
2022/01/22 09:51:18;;;;;;;18.58;6.80;;;;;;;-141.50;100.00;63355.56;4993632;28;20860;-86
2022/01/22 09:53:45;;;;;;;16.95;6.78;;;;;;;-141.50;100.00;63355.56;4996365;28;20124;-83
2022/01/22 09:56:16;;;;;;;30.83;11.05;;;;;;;-141.50;100.00;63355.56;5014388;28;20439;-83
2022/01/22 09:58:43;;;;;;;22.73;7.75;;;;;;;-141.50;100.00;63355.56;5012527;28;20108;-83
2022/01/22 10:01:30;;;;;;;16.05;6.93;;;;;;;-141.50;100.00;63355.56;5008808;28;20170;-83
2022/01/22 10:04:01;;;;;;;27.45;9.45;;;;;;;-141.50;100.00;63355.56;5010170;28;20069;-83
2022/01/22 10:06:31;;;;;;;18.75;7.43;;;;;;;-141.50;100.00;63355.56;5004681;28;20050;-82
2022/01/22 10:09:14;;;;;;;39.33;13.85;;;;;;;-141.50;100.00;63355.56;5012247;28;20053;-83
2022/01/22 10:11:41;;;;;;;36.30;15.85;;;;;;;-141.50;100.00;63355.56;5013212;28;20073;-82
2022/01/22 10:14:09;;;;;;;18.80;9.02;;;;;;;-141.50;100.00;63355.56;5012423;28;20058;-82
2022/01/22 10:16:38;;;;;;;21.27;9.57;;;;;;;-141.50;100.00;63355.56;4994215;28;20108;-81
2022/01/22 10:19:17;;;;;;;21.25;10.27;;;;;;;-141.50;100.00;63355.56;5012929;28;20111;-81
2022/01/22 10:22:02;;;;;;;24.48;9.40;;;;;;;-141.50;100.00;63355.56;5013169;28;20064;-83
2022/01/22 10:24:41;;;;;;;16.93;6.90;;;;;;;-141.50;100.00;63355.56;5013446;28;20058;-84
2022/01/22 10:27:24;;;;;;;22.40;9.15;;;;;;;-141.50;100.00;63355.56;5014492;28;20085;-83
2022/01/22 10:29:57;;;;;;;19.85;8.85;;;;;;;-141.50;100.00;63355.56;5013534;28;20093;-83
2022/01/22 10:32:32;;;;;;;18.45;6.70;;;;;;;-141.50;100.00;63355.56;5014727;28;20054;-82
2022/01/22 10:35:03;;;;;;;;;;;;;;;-141.50;100.00;63355.56;5016537;28;20506;-83
2022/01/22 10:37:30;;;;;;;16.50;6.95;;;;;;;-141.50;100.00;63355.56;5015270;28;19972;-83
2022/01/22 10:40:16;;;;;;;11.52;5.70;;;;;;;-141.50;100.00;63355.56;4993460;28;20069;-82
2022/01/22 10:42:43;;;;;;;14.18;5.90;;;;;;;-141.50;100.00;63355.56;5011673;28;20410;-83
2022/01/22 10:45:14;;;;;;;12.63;5.35;;;;;;;-141.50;100.00;63355.56;5011503;28;20054;-83
2022/01/22 10:47:41;;;;;;;12.57;5.68;;;;;;;-141.50;100.00;63355.56;5017446;28;20100;-82
2022/01/22 10:50:23;;;;;;;12.10;6.13;;;;;;;-141.50;100.00;63355.56;4994714;28;20050;-82
2022/01/22 10:52:51;;;;;;;13.85;5.85;;;;;;;-141.50;100.00;63355.56;5009486;28;20049;-83
2022/01/22 10:55:19;;;;;;;39.83;16.27;;;;;;;-141.50;100.00;63355.56;5010441;28;20058;-82
2022/01/22 10:58:08;;;;;;;28.95;11.30;;;;;;;-141.50;100.00;63355.56;5004600;28;20660;-83
2022/01/22 11:00:36;;;;;;;12.25;5.85;;;;;;;-141.50;100.00;63355.56;4991544;28;20533;-83
2022/01/22 11:03:22;;;;;;;26.90;9.48;;;;;;;-141.50;100.00;63355.56;4992882;28;20058;-81
2022/01/22 11:05:49;;;;;;;24.17;8.93;;;;;;;-141.50;100.00;63355.56;4976267;28;20116;-82
2022/01/22 11:08:16;;;;;;;12.13;5.68;;;;;;;-141.50;100.00;63355.56;4977977;28;20557;-82
2022/01/22 11:10:44;;;;;;;22.38;7.95;;;;;;;-141.50;100.00;63355.56;4998346;28;20338;-81
2022/01/22 11:13:12;;;;;;;15.23;6.05;;;;;;;-141.50;100.00;63355.56;4994643;28;20058;-83
2022/01/22 11:15:41;;;;;;;15.77;5.72;;;;;;;-141.50;100.00;63355.56;4992618;28;20082;-82
2022/01/22 11:18:09;;;;;;;41.70;12.88;;;;;;;-141.50;100.00;63355.56;4990617;28;20061;-83
2022/01/22 11:20:36;;;;;;;30.48;9.50;;;;;;;-141.50;100.00;63355.56;4992245;28;20058;-81
2022/01/22 11:23:02;;;;;;;44.28;13.32;;;;;;;-141.50;100.00;63355.56;4976441;28;20113;-81
2022/01/22 11:25:30;;;;;;;11.95;4.93;;;;;;;-141.50;100.00;63355.56;4978948;28;20054;-81
2022/01/22 11:27:57;;;;;;;15.18;4.93;;;;;;;-141.50;100.00;63355.56;4993286;28;20443;-81
2022/01/22 11:30:27;;;;;;;19.98;6.18;;;;;;;-141.50;100.00;63355.56;4991743;28;20050;-81
2022/01/22 11:33:15;;;;;;;7.40;4.10;;;;;;;-141.50;100.00;63355.56;4991812;28;20463;-82
2022/01/22 11:36:02;;;;;;;12.90;4.40;;;;;;;-141.50;100.00;63355.56;4973766;28;20054;-81
2022/01/22 11:38:30;;;;;;;11.45;4.93;;;;;;;-141.50;100.00;63355.56;4979402;28;20057;-81
2022/01/22 11:41:06;;;;;;;15.18;5.95;;;;;;;-141.50;100.00;63355.56;5005297;28;20515;-81
2022/01/22 11:44:06;;;;;;;16.95;5.93;;;;;;;-141.50;100.00;63355.56;5006651;28;20057;-82
2022/01/22 11:46:39;;;;;;;20.23;7.65;;;;;;;-141.50;100.00;63355.56;5000854;28;20054;-84
2022/01/22 11:49:10;;;;;;;17.77;8.60;;;;;;;-141.50;100.00;63355.56;4990191;28;20080;-82
2022/01/22 11:51:42;;;;;;;37.92;9.40;;;;;;;-141.50;100.00;63355.56;4990238;28;20088;-83
2022/01/22 11:54:09;;;;;;;19.67;8.23;;;;;;;-141.50;100.00;63355.56;4990693;28;20087;-81
2022/01/22 11:56:48;;;;;;;12.23;4.40;;;;;;;-141.50;100.00;63355.56;4972491;28;20492;-82
2022/01/22 11:59:19;;;;;;;10.93;3.30;;;;;;;-141.50;100.00;63355.56;4971160;28;20463;-81
2022/01/22 12:01:50;;;;;;;14.65;4.22;;;;;;;-141.50;100.00;63355.56;4988969;28;20061;-82
2022/01/22 12:04:45;;;;;;;7.88;3.17;;;;;;;-141.50;100.00;63355.56;5005702;28;20054;-81
2022/01/22 12:07:17;;;;;;;9.07;4.18;;;;;;;-141.50;100.00;63355.56;5005984;28;20073;-82
2022/01/22 12:15:41;;;;;;;7.65;4.20;;;;;;;-141.50;100.00;63355.56;5008718;28;20558;-82
2022/01/22 12:18:12;;;;;;;15.15;4.72;;;;;;;-141.50;100.00;63355.56;5005724;28;20406;-80
2022/01/22 12:23:31;;;;;;;13.38;3.92;;;;;;;-141.50;100.00;63355.56;5009297;28;20054;-83
2022/01/22 12:26:00;;;;;;;9.55;3.63;;;;;;;-141.50;100.00;63355.56;5008594;28;20077;-83
2022/01/22 12:28:39;;;;;;;10.90;3.40;;;;;;;-141.50;100.00;63355.56;5008846;28;20054;-83
2022/01/22 12:31:08;;;;;;;12.15;4.45;;;;;;;-141.50;100.00;63355.56;5010751;28;20182;-83
2022/01/22 12:33:38;;;;;;;9.35;3.58;;;;;;;-141.50;100.00;63355.56;5008638;28;20450;-83
2022/01/22 12:36:08;;;;;;;11.55;4.00;;;;;;;-141.50;100.00;63355.56;5009278;28;20054;-81
2022/01/22 12:44:05;;;;;;;;;;;;;;;-141.50;100.00;63355.56;5010914;28;20518;-81
2022/01/22 12:46:48;;;;;;;23.95;10.65;;;;;;;-141.50;100.00;63355.56;5000035;28;19948;-79
2022/01/22 12:49:16;;;;;;;31.73;15.80;;;;;;;-141.50;100.00;63355.56;5001010;28;20080;-81
2022/01/22 12:51:43;;;;;;;15.25;5.97;;;;;;;-141.50;100.00;63355.56;4996405;28;20100;-81
2022/01/22 12:54:09;;;;;;;14.88;5.05;;;;;;;-141.50;100.00;63355.56;5013401;28;20058;-82
2022/01/22 12:57:13;;;;;;;11.35;5.07;;;;;;;-141.50;100.00;63355.56;5010592;28;20092;-83
2022/01/22 12:59:53;;;;;;;13.98;6.80;;;;;;;-141.50;100.00;63355.56;5008551;28;20440;-82
2022/01/22 13:02:56;;;;;;;16.83;5.85;;;;;;;-141.50;100.00;63355.56;5007760;28;20061;-80